Terminal Aerodrome Forecast
Issued by NWS Topeka, KS

Home | Current Version | Previous Version | Graphics & Text | Print | Product List | Glossary On
Versions: 1 2 3 4 5 6 7 8 9 10 11 12 13 14 15 16 17 18 19 20 21
245
FTUS43 KTOP 212332
TAFTOP
TAF
KTOP 212332Z 2200/2224 18008KT P6SM -SHRA VCTS SCT050CB BKN090
     FM220800 30009KT 3SM -TSRA SCT025 OVC060CB
     FM221300 36006KT P6SM BKN025
     FM221600 36010KT P6SM BKN035=

USA.gov is the U.S. government's official web portal to all federal, state and local government web resources and services.